sensor_id;sensor_type;location;lat;lon;timestamp;pressure;altitude;pressure_sealevel;temperature;humidity
16595;BME280;8410;52.532;13.336;2023-12-04T00:00:51;101707.03;;;4.35;64.70
16595;BME280;8410;52.532;13.336;2023-12-04T00:03:20;101711.00;;;4.30;65.04
16595;BME280;8410;52.532;13.336;2023-12-04T00:05:47;101721.69;;;4.23;65.31
16595;BME280;8410;52.532;13.336;2023-12-04T00:08:15;101719.88;;;4.05;66.09
16595;BME280;8410;52.532;13.336;2023-12-04T00:10:42;101712.63;;;4.28;65.61
16595;BME280;8410;52.532;13.336;2023-12-04T00:13:10;101711.06;;;3.84;66.79
16595;BME280;8410;52.532;13.336;2023-12-04T00:18:20;101712.09;;;4.02;66.33
16595;BME280;8410;52.532;13.336;2023-12-04T00:20:48;101707.44;;;3.95;65.39
16595;BME280;8410;52.532;13.336;2023-12-04T00:23:16;101703.84;;;4.23;66.28
16595;BME280;8410;52.532;13.336;2023-12-04T00:25:43;101697.91;;;4.71;64.76
16595;BME280;8410;52.532;13.336;2023-12-04T00:28:11;101699.72;;;4.90;63.78
16595;BME280;8410;52.532;13.336;2023-12-04T00:30:38;101699.56;;;4.87;63.50
16595;BME280;8410;52.532;13.336;2023-12-04T00:33:06;101700.75;;;4.61;64.00
16595;BME280;8410;52.532;13.336;2023-12-04T00:35:35;101712.56;;;4.59;64.81
16595;BME280;8410;52.532;13.336;2023-12-04T00:38:02;101705.44;;;4.37;65.45
16595;BME280;8410;52.532;13.336;2023-12-04T00:40:30;101707.84;;;4.34;65.00
16595;BME280;8410;52.532;13.336;2023-12-04T00:42:57;101707.38;;;4.74;64.91
16595;BME280;8410;52.532;13.336;2023-12-04T00:45:25;101721.50;;;4.19;64.89
16595;BME280;8410;52.532;13.336;2023-12-04T00:47:52;101723.13;;;4.17;64.68
16595;BME280;8410;52.532;13.336;2023-12-04T00:50:20;101723.00;;;4.16;65.86
16595;BME280;8410;52.532;13.336;2023-12-04T00:52:49;101721.16;;;4.61;65.43
16595;BME280;8410;52.532;13.336;2023-12-04T00:55:16;101731.03;;;4.07;66.29
16595;BME280;8410;52.532;13.336;2023-12-04T00:57:45;101729.25;;;4.21;65.92
16595;BME280;8410;52.532;13.336;2023-12-04T01:00:13;101723.47;;;4.09;66.44
16595;BME280;8410;52.532;13.336;2023-12-04T01:02:41;101723.44;;;4.24;66.31
16595;BME280;8410;52.532;13.336;2023-12-04T01:05:09;101722.75;;;4.11;nan
16595;BME280;8410;52.532;13.336;2023-12-04T01:07:36;101720.94;;;3.63;67.25
16595;BME280;8410;52.532;13.336;2023-12-04T01:10:06;101716.38;;;4.03;66.81
16595;BME280;8410;52.532;13.336;2023-12-04T01:12:34;101712.66;;;3.82;67.87
16595;BME280;8410;52.532;13.336;2023-12-04T01:15:02;101714.81;;;3.29;68.51
16595;BME280;8410;52.532;13.336;2023-12-04T01:17:29;101713.69;;;4.16;66.57
16595;BME280;8410;52.532;13.336;2023-12-04T01:19:58;101713.91;;;4.05;65.05
16595;BME280;8410;52.532;13.336;2023-12-04T01:22:25;101705.06;;;4.46;65.43
16595;BME280;8410;52.532;13.336;2023-12-04T01:24:53;101708.97;;;4.39;65.12
16595;BME280;8410;52.532;13.336;2023-12-04T01:27:21;101693.97;;;4.61;65.03
16595;BME280;8410;52.532;13.336;2023-12-04T01:29:49;101695.25;;;4.53;65.01
16595;BME280;8410;52.532;13.336;2023-12-04T01:32:17;101698.06;;;4.41;64.82
16595;BME280;8410;52.532;13.336;2023-12-04T01:34:44;101695.25;;;4.37;65.39
16595;BME280;8410;52.532;13.336;2023-12-04T01:37:12;101691.44;;;4.29;65.35
16595;BME280;8410;52.532;13.336;2023-12-04T01:39:38;101679.69;;;4.16;66.68
16595;BME280;8410;52.532;13.336;2023-12-04T01:42:06;101681.66;;;4.05;65.77
16595;BME280;8410;52.532;13.336;2023-12-04T01:44:35;101684.50;;;3.95;65.56
16595;BME280;8410;52.532;13.336;2023-12-04T01:47:03;101682.59;;;3.91;68.08
16595;BME280;8410;52.532;13.336;2023-12-04T01:49:30;101674.59;;;3.85;67.37
16595;BME280;8410;52.532;13.336;2023-12-04T01:51:58;101686.06;;;4.08;67.22
16595;BME280;8410;52.532;13.336;2023-12-04T01:54:26;101674.56;;;4.31;65.78
16595;BME280;8410;52.532;13.336;2023-12-04T01:56:54;101674.53;;;4.14;66.33
16595;BME280;8410;52.532;13.336;2023-12-04T01:59:22;101668.94;;;4.05;67.16
16595;BME280;8410;52.532;13.336;2023-12-04T02:01:52;101677.16;;;3.85;66.01
16595;BME280;8410;52.532;13.336;2023-12-04T02:04:20;101677.69;;;4.10;66.72
16595;BME280;8410;52.532;13.336;2023-12-04T02:06:48;101675.63;;;4.19;66.18
16595;BME280;8410;52.532;13.336;2023-12-04T02:09:16;101680.00;;;4.22;66.56
16595;BME280;8410;52.532;13.336;2023-12-04T02:11:44;101672.84;;;4.15;65.50
16595;BME280;8410;52.532;13.336;2023-12-04T02:14:11;101670.94;;;4.43;65.95
16595;BME280;8410;52.532;13.336;2023-12-04T02:16:41;101667.91;;;4.18;65.82
16595;BME280;8410;52.532;13.336;2023-12-04T02:19:12;101672.25;;;3.88;66.43
16595;BME280;8410;52.532;13.336;2023-12-04T02:21:40;101657.31;;;4.10;66.38
16595;BME280;8410;52.532;13.336;2023-12-04T02:24:09;101663.50;;;3.99;66.25
16595;BME280;8410;52.532;13.336;2023-12-04T02:26:41;101656.97;;;3.88;66.21
16595;BME280;8410;52.532;13.336;2023-12-04T02:29:15;101647.09;;;3.94;67.02
16595;BME280;8410;52.532;13.336;2023-12-04T02:31:46;101646.16;;;4.08;66.92
16595;BME280;8410;52.532;13.336;2023-12-04T02:34:15;101650.72;;;3.51;67.99
16595;BME280;8410;52.532;13.336;2023-12-04T02:36:44;101650.84;;;2.94;71.42
16595;BME280;8410;52.532;13.336;2023-12-04T02:39:13;101638.34;;;3.89;67.76
16595;BME280;8410;52.532;13.336;2023-12-04T02:41:41;101643.16;;;3.84;67.17
16595;BME280;8410;52.532;13.336;2023-12-04T02:44:08;101639.78;;;4.00;66.75
16595;BME280;8410;52.532;13.336;2023-12-04T02:46:36;101631.25;;;3.83;66.09
16595;BME280;8410;52.532;13.336;2023-12-04T02:49:03;101631.59;;;4.06;66.73
16595;BME280;8410;52.532;13.336;2023-12-04T02:51:31;101631.75;;;4.09;66.51
16595;BME280;8410;52.532;13.336;2023-12-04T02:53:58;101626.06;;;3.82;65.97
16595;BME280;8410;52.532;13.336;2023-12-04T02:56:27;101622.59;;;4.12;66.91
16595;BME280;8410;52.532;13.336;2023-12-04T02:58:55;101619.50;;;4.02;66.09
16595;BME280;8410;52.532;13.336;2023-12-04T03:01:23;101610.09;;;4.17;66.41
16595;BME280;8410;52.532;13.336;2023-12-04T03:03:50;101611.13;;;4.20;64.93
16595;BME280;8410;52.532;13.336;2023-12-04T03:06:18;101608.44;;;4.01;65.66
16595;BME280;8410;52.532;13.336;2023-12-04T03:08:46;101608.44;;;4.01;66.14
16595;BME280;8410;52.532;13.336;2023-12-04T03:11:13;101603.56;;;4.06;65.87
16595;BME280;8410;52.532;13.336;2023-12-04T03:13:42;101593.47;;;4.07;66.32
16595;BME280;8410;52.532;13.336;2023-12-04T03:16:14;101610.84;;;3.67;66.87
16595;BME280;8410;52.532;13.336;2023-12-04T03:18:42;101597.88;;;3.47;66.92
16595;BME280;8410;52.532;13.336;2023-12-04T03:21:10;101602.81;;;3.92;65.86
16595;BME280;8410;52.532;13.336;2023-12-04T03:23:38;101589.63;;;3.99;65.69
16595;BME280;8410;52.532;13.336;2023-12-04T03:26:06;101603.91;;;3.64;65.81
16595;BME280;8410;52.532;13.336;2023-12-04T03:28:33;101603.34;;;3.39;66.18
16595;BME280;8410;52.532;13.336;2023-12-04T03:31:03;101592.50;;;4.05;66.01
16595;BME280;8410;52.532;13.336;2023-12-04T03:33:31;101587.72;;;4.28;64.99
16595;BME280;8410;52.532;13.336;2023-12-04T03:35:59;101590.59;;;4.17;65.02
16595;BME280;8410;52.532;13.336;2023-12-04T03:38:26;101586.53;;;4.05;64.50
16595;BME280;8410;52.532;13.336;2023-12-04T03:40:54;101587.97;;;4.16;66.02
16595;BME280;8410;52.532;13.336;2023-12-04T03:43:21;101586.78;;;3.93;64.47
16595;BME280;8410;52.532;13.336;2023-12-04T03:45:49;101580.88;;;4.10;66.05
16595;BME280;8410;52.532;13.336;2023-12-04T03:48:18;101574.97;;;4.11;65.04
16595;BME280;8410;52.532;13.336;2023-12-04T03:50:45;101579.75;;;4.05;65.20
16595;BME280;8410;52.532;13.336;2023-12-04T03:53:13;101577.56;;;3.64;65.31
16595;BME280;8410;52.532;13.336;2023-12-04T03:55:40;101573.66;;;2.93;66.19
16595;BME280;8410;52.532;13.336;2023-12-04T03:58:08;101576.28;;;2.35;67.94
16595;BME280;8410;52.532;13.336;2023-12-04T04:00:36;101561.09;;;3.73;65.56
16595;BME280;8410;52.532;13.336;2023-12-04T04:03:08;101555.38;;;4.10;64.59
16595;BME280;8410;52.532;13.336;2023-12-04T04:05:37;101554.38;;;3.90;64.41
16595;BME280;8410;52.532;13.336;2023-12-04T04:08:05;101551.41;;;3.99;65.52
16595;BME280;8410;52.532;13.336;2023-12-04T04:10:34;101553.16;;;4.16;64.19
16595;BME280;8410;52.532;13.336;2023-12-04T04:13:01;101555.25;;;3.91;63.81
16595;BME280;8410;52.532;13.336;2023-12-04T04:15:29;101561.59;;;4.15;64.45
16595;BME280;8410;52.532;13.336;2023-12-04T04:17:56;101548.56;;;3.93;64.74
16595;BME280;8410;52.532;13.336;2023-12-04T04:20:24;101563.75;;;4.08;64.16
16595;BME280;8410;52.532;13.336;2023-12-04T04:22:53;101559.22;;;4.02;63.74
16595;BME280;8410;52.532;13.336;2023-12-04T04:25:21;101552.03;;;3.95;64.27
16595;BME280;8410;52.532;13.336;2023-12-04T04:27:50;101574.56;;;3.40;64.09
16595;BME280;8410;52.532;13.336;2023-12-04T04:30:18;101568.69;;;3.72;64.85
16595;BME280;8410;52.532;13.336;2023-12-04T04:32:45;101574.47;;;3.69;64.27
16595;BME280;8410;52.532;13.336;2023-12-04T04:35:13;101573.00;;;3.58;64.69
16595;BME280;8410;52.532;13.336;2023-12-04T04:37:40;101558.81;;;3.94;64.83
16595;BME280;8410;52.532;13.336;2023-12-04T04:40:13;101564.88;;;3.96;64.58
16595;BME280;8410;52.532;13.336;2023-12-04T04:42:40;101577.09;;;3.71;64.58
16595;BME280;8410;52.532;13.336;2023-12-04T04:45:08;101568.69;;;3.72;64.20
16595;BME280;8410;52.532;13.336;2023-12-04T04:47:36;101565.81;;;3.35;64.39
16595;BME280;8410;52.532;13.336;2023-12-04T04:50:04;101564.41;;;3.40;65.25
16595;BME280;8410;52.532;13.336;2023-12-04T04:52:32;101554.91;;;3.85;64.37
16595;BME280;8410;52.532;13.336;2023-12-04T04:54:59;101547.75;;;3.94;64.05
16595;BME280;8410;52.532;13.336;2023-12-04T04:57:28;101544.03;;;3.40;64.00
16595;BME280;8410;52.532;13.336;2023-12-04T04:59:56;101539.16;;;3.92;63.67
16595;BME280;8410;52.532;13.336;2023-12-04T05:02:24;101541.47;;;4.04;63.68
16595;BME280;8410;52.532;13.336;2023-12-04T05:04:51;101540.97;;;3.94;63.54
16595;BME280;8410;52.532;13.336;2023-12-04T05:07:19;101546.22;;;3.65;64.03
16595;BME280;8410;52.532;13.336;2023-12-04T05:09:47;101540.41;;;3.84;64.51
16595;BME280;8410;52.532;13.336;2023-12-04T05:12:14;101539.84;;;4.06;63.74
16595;BME280;8410;52.532;13.336;2023-12-04T05:14:43;101539.41;;;3.96;63.16
16595;BME280;8410;52.532;13.336;2023-12-04T05:17:11;101534.84;;;3.74;63.34
16595;BME280;8410;52.532;13.336;2023-12-04T05:19:38;101527.38;;;3.61;64.34
16595;BME280;8410;52.532;13.336;2023-12-04T05:22:08;101519.88;;;3.64;63.65
16595;BME280;8410;52.532;13.336;2023-12-04T05:24:35;101517.25;;;3.79;63.55
16595;BME280;8410;52.532;13.336;2023-12-04T05:27:03;101511.59;;;3.68;63.06
16595;BME280;8410;52.532;13.336;2023-12-04T05:29:31;101510.09;;;3.88;62.31
16595;BME280;8410;52.532;13.336;2023-12-04T05:31:59;101501.56;;;3.71;63.37
16595;BME280;8410;52.532;13.336;2023-12-04T05:34:27;101506.25;;;4.13;63.83
16595;BME280;8410;52.532;13.336;2023-12-04T05:36:54;101502.34;;;4.19;62.48
16595;BME280;8410;52.532;13.336;2023-12-04T05:39:22;101499.97;;;3.73;62.49
16595;BME280;8410;52.532;13.336;2023-12-04T05:41:49;101495.84;;;3.92;62.10
16595;BME280;8410;52.532;13.336;2023-12-04T05:44:17;101497.13;;;4.00;61.65
16595;BME280;8410;52.532;13.336;2023-12-04T05:46:45;101500.47;;;3.83;63.28
16595;BME280;8410;52.532;13.336;2023-12-04T05:49:14;101499.72;;;4.18;62.34
16595;BME280;8410;52.532;13.336;2023-12-04T05:51:41;101502.03;;;4.13;63.20
16595;BME280;8410;52.532;13.336;2023-12-04T05:54:09;101505.56;;;3.83;62.89
16595;BME280;8410;52.532;13.336;2023-12-04T05:56:36;101499.13;;;3.73;63.08
16595;BME280;8410;52.532;13.336;2023-12-04T05:59:04;101498.16;;;3.87;63.52
16595;BME280;8410;52.532;13.336;2023-12-04T06:01:31;101499.75;;;3.69;63.47
16595;BME280;8410;52.532;13.336;2023-12-04T06:03:59;101496.28;;;4.34;63.47
16595;BME280;8410;52.532;13.336;2023-12-04T06:06:28;101496.97;;;3.81;64.06
16595;BME280;8410;52.532;13.336;2023-12-04T06:08:55;101499.03;;;3.88;64.25
16595;BME280;8410;52.532;13.336;2023-12-04T06:11:23;101501.88;;;4.10;62.97
16595;BME280;8410;52.532;13.336;2023-12-04T06:13:50;101494.50;;;3.98;63.42
16595;BME280;8410;52.532;13.336;2023-12-04T06:16:18;101495.16;;;4.29;62.80
16595;BME280;8410;52.532;13.336;2023-12-04T06:18:45;101491.69;;;4.10;62.83
16595;BME280;8410;52.532;13.336;2023-12-04T06:21:13;101493.38;;;3.93;63.96
16595;BME280;8410;52.532;13.336;2023-12-04T06:23:42;101486.06;;;4.34;63.63
16595;BME280;8410;52.532;13.336;2023-12-04T06:26:11;101487.03;;;4.19;63.11
16595;BME280;8410;52.532;13.336;2023-12-04T06:28:39;101492.66;;;4.12;64.08
16595;BME280;8410;52.532;13.336;2023-12-04T06:31:08;101489.72;;;4.39;63.16
16595;BME280;8410;52.532;13.336;2023-12-04T06:33:37;101489.19;;;4.62;62.84
16595;BME280;8410;52.532;13.336;2023-12-04T06:36:06;101483.47;;;4.16;63.12
16595;BME280;8410;52.532;13.336;2023-12-04T06:38:38;101484.00;;;4.27;63.23
16595;BME280;8410;52.532;13.336;2023-12-04T06:41:09;101485.31;;;4.18;63.62
16595;BME280;8410;52.532;13.336;2023-12-04T06:43:37;101478.66;;;3.88;63.28
16595;BME280;8410;52.532;13.336;2023-12-04T06:46:06;101473.69;;;4.07;63.37
16595;BME280;8410;52.532;13.336;2023-12-04T06:48:35;101467.81;;;3.92;64.19
16595;BME280;8410;52.532;13.336;2023-12-04T06:51:04;101468.63;;;4.41;62.92
16595;BME280;8410;52.532;13.336;2023-12-04T06:53:31;101467.50;;;4.02;63.32
16595;BME280;8410;52.532;13.336;2023-12-04T06:55:59;101466.06;;;4.07;64.39
16595;BME280;8410;52.532;13.336;2023-12-04T06:58:27;101455.88;;;4.95;61.73
16595;BME280;8410;52.532;13.336;2023-12-04T07:00:55;101454.91;;;4.75;61.78
16595;BME280;8410;52.532;13.336;2023-12-04T07:03:22;101457.63;;;4.60;62.29
16595;BME280;8410;52.532;13.336;2023-12-04T07:05:51;101459.53;;;4.30;63.88
16595;BME280;8410;52.532;13.336;2023-12-04T07:08:19;101450.81;;;4.43;63.04
16595;BME280;8410;52.532;13.336;2023-12-04T07:10:46;101446.97;;;4.51;62.89
16595;BME280;8410;52.532;13.336;2023-12-04T07:13:14;101452.31;;;4.22;63.05
16595;BME280;8410;52.532;13.336;2023-12-04T07:15:44;101453.69;;;4.49;62.88
16595;BME280;8410;52.532;13.336;2023-12-04T07:18:11;101446.16;;;4.70;63.75
16595;BME280;8410;52.532;13.336;2023-12-04T07:20:39;101440.94;;;4.85;62.91
16595;BME280;8410;52.532;13.336;2023-12-04T07:23:06;101436.88;;;4.71;63.31
16595;BME280;8410;52.532;13.336;2023-12-04T07:25:34;101442.06;;;4.38;64.28
16595;BME280;8410;52.532;13.336;2023-12-04T07:28:01;101434.72;;;4.98;62.54
16595;BME280;8410;52.532;13.336;2023-12-04T07:30:29;101431.44;;;5.00;62.39
16595;BME280;8410;52.532;13.336;2023-12-04T07:32:58;101430.84;;;5.06;62.17
16595;BME280;8410;52.532;13.336;2023-12-04T07:35:26;101440.63;;;4.97;62.29
16595;BME280;8410;52.532;13.336;2023-12-04T07:37:53;101437.56;;;4.86;62.99
16595;BME280;8410;52.532;13.336;2023-12-04T07:40:21;101437.81;;;5.10;62.33
16595;BME280;8410;52.532;13.336;2023-12-04T07:42:49;101431.25;;;5.15;62.04
16595;BME280;8410;52.532;13.336;2023-12-04T07:45:17;101432.53;;;5.05;62.39
16595;BME280;8410;52.532;13.336;2023-12-04T07:47:44;101437.94;;;4.40;62.80
16595;BME280;8410;52.532;13.336;2023-12-04T07:50:13;101431.47;;;4.64;63.12
16595;BME280;8410;52.532;13.336;2023-12-04T07:52:41;101428.41;;;5.27;62.42
16595;BME280;8410;52.532;13.336;2023-12-04T07:55:08;101424.16;;;4.90;61.77
16595;BME280;8410;52.532;13.336;2023-12-04T07:57:36;101420.09;;;5.13;61.54
16595;BME280;8410;52.532;13.336;2023-12-04T08:00:05;101425.72;;;5.24;62.16
16595;BME280;8410;52.532;13.336;2023-12-04T08:02:33;101426.38;;;5.39;61.48
16595;BME280;8410;52.532;13.336;2023-12-04T08:05:01;101428.81;;;4.81;62.42
16595;BME280;8410;52.532;13.336;2023-12-04T08:07:30;101425.59;;;5.40;61.65
16595;BME280;8410;52.532;13.336;2023-12-04T08:09:57;101421.69;;;5.68;60.74
16595;BME280;8410;52.532;13.336;2023-12-04T08:12:25;101416.84;;;5.35;61.21
16595;BME280;8410;52.532;13.336;2023-12-04T08:14:53;101422.16;;;5.02;61.52
16595;BME280;8410;52.532;13.336;2023-12-04T08:17:21;101424.63;;;4.81;61.73
16595;BME280;8410;52.532;13.336;2023-12-04T08:19:48;101420.56;;;5.04;61.68
16595;BME280;8410;52.532;13.336;2023-12-04T08:22:19;101427.38;;;4.32;61.42
16595;BME280;8410;52.532;13.336;2023-12-04T08:24:47;101421.13;;;5.36;62.19
16595;BME280;8410;52.532;13.336;2023-12-04T08:27:15;101419.44;;;5.37;61.43
16595;BME280;8410;52.532;13.336;2023-12-04T08:29:42;101423.03;;;5.40;60.13
16595;BME280;8410;52.532;13.336;2023-12-04T08:32:10;101414.97;;;5.70;60.08
16595;BME280;8410;52.532;13.336;2023-12-04T08:34:37;101422.75;;;5.34;60.70
16595;BME280;8410;52.532;13.336;2023-12-04T08:37:05;101418.88;;;5.62;60.54
16595;BME280;8410;52.532;13.336;2023-12-04T08:39:32;101421.34;;;5.21;60.96
16595;BME280;8410;52.532;13.336;2023-12-04T08:42:02;101416.91;;;5.37;60.52
16595;BME280;8410;52.532;13.336;2023-12-04T08:44:35;101414.44;;;5.38;61.15
16595;BME280;8410;52.532;13.336;2023-12-04T08:47:02;101414.31;;;5.35;61.60
16595;BME280;8410;52.532;13.336;2023-12-04T08:49:30;101410.97;;;5.77;60.56
16595;BME280;8410;52.532;13.336;2023-12-04T08:52:09;101412.56;;;6.13;59.36
16595;BME280;8410;52.532;13.336;2023-12-04T08:54:39;101412.94;;;5.43;60.38
16595;BME280;8410;52.532;13.336;2023-12-04T08:57:08;101412.06;;;5.62;59.71
16595;BME280;8410;52.532;13.336;2023-12-04T08:59:36;101414.56;;;5.80;60.73
16595;BME280;8410;52.532;13.336;2023-12-04T09:02:04;101411.88;;;5.96;59.19
16595;BME280;8410;52.532;13.336;2023-12-04T09:04:31;101414.34;;;5.75;59.91
16595;BME280;8410;52.532;13.336;2023-12-04T09:07:00;101415.78;;;5.30;61.14
16595;BME280;8410;52.532;13.336;2023-12-04T09:09:48;101418.44;;;5.91;59.59
16595;BME280;8410;52.532;13.336;2023-12-04T09:12:17;101407.81;;;6.02;59.33
16595;BME280;8410;52.532;13.336;2023-12-04T09:14:44;101402.25;;;6.12;58.84
16595;BME280;8410;52.532;13.336;2023-12-04T09:17:12;101415.50;;;6.02;59.53
16595;BME280;8410;52.532;13.336;2023-12-04T09:19:40;101420.69;;;5.85;59.20
16595;BME280;8410;52.532;13.336;2023-12-04T09:22:08;101416.22;;;6.20;58.73
16595;BME280;8410;52.532;13.336;2023-12-04T09:24:45;101407.53;;;6.15;59.08
16595;BME280;8410;52.532;13.336;2023-12-04T09:27:12;101413.72;;;6.01;59.67
16595;BME280;8410;52.532;13.336;2023-12-04T09:29:41;101403.94;;;6.32;59.06
16595;BME280;8410;52.532;13.336;2023-12-04T09:32:09;101413.53;;;6.17;58.68
16595;BME280;8410;52.532;13.336;2023-12-04T09:34:37;101415.88;;;4.76;61.58
16595;BME280;8410;52.532;13.336;2023-12-04T09:37:04;101412.78;;;5.01;60.77
16595;BME280;8410;52.532;13.336;2023-12-04T09:39:37;101412.88;;;5.61;60.71
16595;BME280;8410;52.532;13.336;2023-12-04T09:42:07;101414.56;;;5.80;60.02
16595;BME280;8410;52.532;13.336;2023-12-04T09:44:36;101412.06;;;6.22;58.66
16595;BME280;8410;52.532;13.336;2023-12-04T09:47:07;101402.72;;;6.02;58.16
16595;BME280;8410;52.532;13.336;2023-12-04T09:49:35;101402.88;;;6.27;58.93
16595;BME280;8410;52.532;13.336;2023-12-04T09:52:03;101397.78;;;6.27;59.57
16595;BME280;8410;52.532;13.336;2023-12-04T09:54:32;101399.16;;;6.19;58.50
16595;BME280;8410;52.532;13.336;2023-12-04T09:57:03;101396.69;;;5.41;59.26
16595;BME280;8410;52.532;13.336;2023-12-04T09:59:31;101395.75;;;6.41;59.31
16595;BME280;8410;52.532;13.336;2023-12-04T10:01:59;101389.00;;;6.64;57.78
16595;BME280;8410;52.532;13.336;2023-12-04T10:04:28;101395.03;;;6.02;57.90
16595;BME280;8410;52.532;13.336;2023-12-04T10:06:56;101382.13;;;5.79;60.12
16595;BME280;8410;52.532;13.336;2023-12-04T10:09:24;101383.50;;;5.71;57.85
16595;BME280;8410;52.532;13.336;2023-12-04T10:11:52;101392.09;;;5.73;60.33
16595;BME280;8410;52.532;13.336;2023-12-04T10:14:20;101378.94;;;6.25;59.21
16595;BME280;8410;52.532;13.336;2023-12-04T10:16:48;101374.28;;;6.58;58.55
16595;BME280;8410;52.532;13.336;2023-12-04T10:19:18;101366.31;;;6.96;57.80
16595;BME280;8410;52.532;13.336;2023-12-04T10:21:48;101366.75;;;7.31;57.26
16595;BME280;8410;52.532;13.336;2023-12-04T10:24:30;101359.47;;;6.50;57.75
16595;BME280;8410;52.532;13.336;2023-12-04T10:26:59;101352.06;;;7.26;56.96
16595;BME280;8410;52.532;13.336;2023-12-04T10:29:28;101353.97;;;7.32;56.14
16595;BME280;8410;52.532;13.336;2023-12-04T10:32:00;101356.75;;;6.24;58.50
16595;BME280;8410;52.532;13.336;2023-12-04T10:34:29;101345.94;;;6.99;58.04
16595;BME280;8410;52.532;13.336;2023-12-04T10:37:02;101340.25;;;6.83;57.28
16595;BME280;8410;52.532;13.336;2023-12-04T10:39:30;101327.00;;;6.94;56.89
16595;BME280;8410;52.532;13.336;2023-12-04T10:42:02;101332.94;;;6.70;57.54
16595;BME280;8410;52.532;13.336;2023-12-04T10:44:30;101327.56;;;6.87;57.01
16595;BME280;8410;52.532;13.336;2023-12-04T10:46:59;101325.56;;;6.78;57.78
16595;BME280;8410;52.532;13.336;2023-12-04T10:49:28;101324.34;;;7.64;56.85
16595;BME280;8410;52.532;13.336;2023-12-04T10:51:56;101312.47;;;6.93;57.65
16595;BME280;8410;52.532;13.336;2023-12-04T10:54:28;101313.25;;;7.40;56.07
16595;BME280;8410;52.532;13.336;2023-12-04T10:56:59;101305.69;;;6.95;56.76
16595;BME280;8410;52.532;13.336;2023-12-04T10:59:32;101305.44;;;6.87;58.32
16595;BME280;8410;52.532;13.336;2023-12-04T11:02:01;101300.03;;;6.57;57.24
16595;BME280;8410;52.532;13.336;2023-12-04T11:04:31;101293.19;;;6.56;57.99
16595;BME280;8410;52.532;13.336;2023-12-04T11:07:02;101294.19;;;6.83;57.00
16595;BME280;8410;52.532;13.336;2023-12-04T11:09:35;101288.72;;;6.97;57.76
16595;BME280;8410;52.532;13.336;2023-12-04T11:12:05;101291.47;;;7.03;57.10
16595;BME280;8410;52.532;13.336;2023-12-04T11:14:39;101282.97;;;7.28;57.59
16595;BME280;8410;52.532;13.336;2023-12-04T11:17:12;101279.59;;;7.05;56.53
16595;BME280;8410;52.532;13.336;2023-12-04T11:19:48;101277.41;;;7.40;56.59
16595;BME280;8410;52.532;13.336;2023-12-04T11:22:17;101276.16;;;7.28;58.33
16595;BME280;8410;52.532;13.336;2023-12-04T11:24:47;101275.84;;;6.71;58.62
16595;BME280;8410;52.532;13.336;2023-12-04T11:27:16;101268.50;;;6.80;57.79
16595;BME280;8410;52.532;13.336;2023-12-04T11:29:46;101273.00;;;7.61;56.83
16595;BME280;8410;52.532;13.336;2023-12-04T11:32:14;101268.69;;;7.09;56.63
16595;BME280;8410;52.532;13.336;2023-12-04T11:34:49;101265.56;;;7.18;57.30
16595;BME280;8410;52.532;13.336;2023-12-04T11:37:19;101270.13;;;6.78;58.18
16595;BME280;8410;52.532;13.336;2023-12-04T11:39:49;101273.41;;;6.07;60.44
16595;BME280;8410;52.532;13.336;2023-12-04T11:42:21;101275.22;;;6.54;59.27
16595;BME280;8410;52.532;13.336;2023-12-04T11:44:55;101262.44;;;6.78;59.30
16595;BME280;8410;52.532;13.336;2023-12-04T11:47:24;101265.44;;;6.67;59.59
16595;BME280;8410;52.532;13.336;2023-12-04T11:49:52;101249.00;;;7.08;57.96
16595;BME280;8410;52.532;13.336;2023-12-04T11:52:32;101257.00;;;7.17;58.47
16595;BME280;8410;52.532;13.336;2023-12-04T11:55:03;101254.53;;;7.20;58.63
16595;BME280;8410;52.532;13.336;2023-12-04T11:57:34;101255.06;;;6.39;59.58
16595;BME280;8410;52.532;13.336;2023-12-04T12:00:09;101249.75;;;7.05;58.23
16595;BME280;8410;52.532;13.336;2023-12-04T12:02:38;101253.88;;;5.88;59.12
16595;BME280;8410;52.532;13.336;2023-12-04T12:05:26;101246.94;;;6.74;58.35
16595;BME280;8410;52.532;13.336;2023-12-04T12:07:54;101255.81;;;5.30;62.45
16595;BME280;8410;52.532;13.336;2023-12-04T12:10:23;101238.06;;;6.17;60.92
16595;BME280;8410;52.532;13.336;2023-12-04T12:12:51;101234.81;;;6.46;59.50
16595;BME280;8410;52.532;13.336;2023-12-04T12:15:19;101231.47;;;6.71;60.32
16595;BME280;8410;52.532;13.336;2023-12-04T12:17:46;101227.97;;;6.45;60.28
16595;BME280;8410;52.532;13.336;2023-12-04T12:20:15;101218.91;;;6.30;60.13
16595;BME280;8410;52.532;13.336;2023-12-04T12:22:42;101226.69;;;6.11;60.45
16595;BME280;8410;52.532;13.336;2023-12-04T12:25:11;101219.88;;;6.56;60.10
16595;BME280;8410;52.532;13.336;2023-12-04T12:27:40;101217.75;;;6.93;59.47
16595;BME280;8410;52.532;13.336;2023-12-04T12:30:10;101212.84;;;6.51;58.12
16595;BME280;8410;52.532;13.336;2023-12-04T12:32:37;101203.63;;;7.29;58.20
16595;BME280;8410;52.532;13.336;2023-12-04T12:35:06;101204.88;;;7.15;58.39
16595;BME280;8410;52.532;13.336;2023-12-04T12:37:35;101207.69;;;7.23;58.98
16595;BME280;8410;52.532;13.336;2023-12-04T12:40:04;101199.84;;;7.18;59.49
16595;BME280;8410;52.532;13.336;2023-12-04T12:42:37;101194.16;;;7.27;58.89
16595;BME280;8410;52.532;13.336;2023-12-04T12:45:10;101182.97;;;7.50;58.28
16595;BME280;8410;52.532;13.336;2023-12-04T12:47:40;101185.50;;;7.49;58.80
16595;BME280;8410;52.532;13.336;2023-12-04T12:50:08;101186.78;;;7.62;57.94
16595;BME280;8410;52.532;13.336;2023-12-04T12:52:38;101183.91;;;7.27;58.85
16595;BME280;8410;52.532;13.336;2023-12-04T12:55:06;101190.69;;;6.05;60.37
16595;BME280;8410;52.532;13.336;2023-12-04T12:57:33;101181.50;;;6.80;60.47
16595;BME280;8410;52.532;13.336;2023-12-04T13:00:01;101179.06;;;7.09;58.60
16595;BME280;8410;52.532;13.336;2023-12-04T13:02:36;101178.66;;;7.22;59.23
16595;BME280;8410;52.532;13.336;2023-12-04T13:05:05;101175.22;;;7.22;58.00
16595;BME280;8410;52.532;13.336;2023-12-04T13:07:38;101188.59;;;5.73;60.75
16595;BME280;8410;52.532;13.336;2023-12-04T13:10:07;101186.25;;;5.57;62.35